PAFA/FAI METAR and TAF weather

Enter ICAO airport designator
Station Type Date Time Source
PAFA METAR 2018/12/19 03:10 UTC NOAA

PAFA 190310Z 00000KT 2SM -SN BR OVC020 M18/M21 A2939 RMK AO2 T11781211 PNO


Station Type Date Time Source
PAFA Decoded METAR 2018/12/19 03:10 UTC NOAA

Fairbanks, Fairbanks International Airport, AK, United States (PAFA) 64-48-14N 147-52-34W 140M
Dec 18, 2018 - 10:10 PM EST / 2018.12.19 0310 UTC
Wind: Calm:0
Visibility: 2 mile(s):0
Sky conditions: overcast
Weather: light snow; mist
Temperature: -0.0 F (-17.8 C)
Dew Point: -6.0 F (-21.1 C)
Relative Humidity: 75%
Pressure (altimeter): 29.39 in. Hg (995 hPa)
ob: PAFA 190310Z 00000KT 2SM -SN BR OVC020 M18/M21 A2939 RMK AO2 T11781211 PNO
cycle: 3

Station Type Date Time Source
PAFA TAF 2018/12/19 03:57 UTC NOAA

TAF
AMD PAFA 190257Z 1903/2006 VRB03KT 2SM -SN BR SCT015 OVC020
TEMPO 1903/1906 1 1/2SM -SN
FM190600 VRB03KT 4SM -SN BR OVC025
FM192000 VRB03KT 2SM -SN BR BKN015 OVC025


Example: see airport list